Time;durP1;ratioP1;P1;durP2;ratioP2;P2;SDS_P1;SDS_P2;PMS_P1;PMS_P2;Temp;Humidity;BMP_temperature;BMP_pressure;BME280_temperature;BME280_humidity;BME280_pressure;Samples;Min_cycle;Max_cycle;Signal;HPM_P1;HPM_P2
2024/02/07 05:16:28;;;;;;;1.00;0.90;;;10.60;97.30;;;;;;5047537;28;20573;-93
2024/02/07 05:18:56;;;;;;;0.90;0.80;;;9.70;97.30;;;;;;5036496;28;20522;-90
2024/02/07 05:21:23;;;;;;;1.53;1.17;;;8.70;97.30;;;;;;5036894;28;20466;-91
2024/02/07 05:23:48;;;;;;;0.90;0.80;;;8.10;97.30;;;;;;5036789;28;20417;-91
2024/02/07 05:26:17;;;;;;;1.10;1.00;;;7.70;97.30;;;;;;5037028;28;20497;-90
2024/02/07 05:28:42;;;;;;;0.90;0.80;;;7.50;97.30;;;;;;5054855;28;20222;-91
2024/02/07 05:31:07;;;;;;;1.00;0.90;;;7.30;97.30;;;;;;5034945;28;20438;-90
2024/02/07 05:33:33;;;;;;;1.00;0.90;;;7.20;97.30;;;;;;5030943;28;20215;-92
2024/02/07 05:35:58;;;;;;;0.90;0.80;;;7.10;97.30;;;;;;5032792;28;20198;-90
2024/02/07 05:38:24;;;;;;;1.00;0.90;;;7.10;97.30;;;;;;5037735;28;20182;-92
2024/02/07 05:40:49;;;;;;;1.00;0.90;;;7.00;97.30;;;;;;5035729;28;20215;-90
2024/02/07 05:43:15;;;;;;;1.07;0.97;;;6.90;97.30;;;;;;5055361;28;20228;-91
2024/02/07 05:45:40;;;;;;;1.00;0.90;;;6.90;97.30;;;;;;5037519;28;20168;-91
2024/02/07 05:48:06;;;;;;;1.10;1.00;;;6.80;97.30;;;;;;5037577;28;20297;-91
2024/02/07 05:50:32;;;;;;;1.10;1.00;;;6.80;97.30;;;;;;5037101;28;20184;-92
2024/02/07 05:52:57;;;;;;;1.10;1.00;;;6.80;97.30;;;;;;5037528;28;20211;-91
2024/02/07 05:55:23;;;;;;;1.00;0.90;;;6.70;97.30;;;;;;5037012;28;20216;-91
2024/02/07 05:57:48;;;;;;;0.97;0.87;;;6.70;97.30;;;;;;5032362;28;20187;-92
2024/02/07 06:00:15;;;;;;;1.20;1.10;;;6.70;97.30;;;;;;5034880;28;20199;-91
2024/02/07 06:02:41;;;;;;;1.00;0.90;;;6.60;97.30;;;;;;5052108;28;20227;-93
2024/02/07 06:05:06;;;;;;;0.97;0.87;;;6.60;97.30;;;;;;5053621;28;20800;-91
2024/02/07 06:07:36;;;;;;;1.00;0.90;;;6.50;97.30;;;;;;5053528;28;20509;-90
2024/02/07 06:10:02;;;;;;;1.00;0.90;;;6.50;97.30;;;;;;5053217;28;20649;-91
2024/02/07 06:12:28;;;;;;;1.80;1.70;;;6.30;97.30;;;;;;5054041;28;20534;-90
2024/02/07 06:14:58;;;;;;;1.30;1.20;;;6.30;97.30;;;;;;5053393;28;20180;-90
2024/02/07 06:17:28;;;;;;;1.03;1.00;;;6.10;97.30;;;;;;5050883;28;20418;-90
2024/02/07 06:19:53;;;;;;;1.00;0.90;;;6.00;97.30;;;;;;5047116;28;20461;-90
2024/02/07 06:22:19;;;;;;;1.00;0.90;;;6.00;97.30;;;;;;5052109;28;20430;-88
2024/02/07 06:24:46;;;;;;;1.00;0.90;;;5.80;97.30;;;;;;5052078;28;20259;-91
2024/02/07 06:27:12;;;;;;;1.00;0.90;;;5.70;97.30;;;;;;5060116;28;20414;-90
2024/02/07 06:29:38;;;;;;;1.10;1.00;;;5.60;97.30;;;;;;5053233;28;20479;-90
2024/02/07 06:32:04;;;;;;;1.00;0.90;;;5.50;97.30;;;;;;5050497;28;20439;-89
2024/02/07 06:34:31;;;;;;;0.97;0.87;;;5.50;97.30;;;;;;5046995;28;20685;-90
2024/02/07 06:36:58;;;;;;;1.00;0.90;;;5.40;97.30;;;;;;5056995;28;20254;-90
2024/02/07 06:39:24;;;;;;;0.97;0.87;;;5.30;97.30;;;;;;5062642;28;20931;-90
2024/02/07 06:41:49;;;;;;;0.93;0.83;;;5.20;97.30;;;;;;5047037;28;20449;-89
2024/02/07 06:44:15;;;;;;;1.00;0.90;;;5.20;97.30;;;;;;5055787;28;20230;-89
2024/02/07 06:46:42;;;;;;;1.03;0.93;;;5.10;97.30;;;;;;5046846;28;20815;-89
2024/02/07 06:49:08;;;;;;;1.10;1.00;;;5.10;97.30;;;;;;5055242;28;20183;-89
2024/02/07 06:51:33;;;;;;;1.00;0.90;;;5.00;97.30;;;;;;5054544;28;20473;-89
2024/02/07 06:53:58;;;;;;;1.00;0.90;;;4.90;97.30;;;;;;5049238;28;20185;-90
2024/02/07 06:56:24;;;;;;;0.90;0.80;;;4.80;97.30;;;;;;5061263;23;20351;-88
2024/02/07 06:58:49;;;;;;;1.10;1.00;;;4.70;97.30;;;;;;5025541;28;20653;-86
2024/02/07 07:01:15;;;;;;;1.10;1.00;;;4.70;97.30;;;;;;5026715;28;20227;-88
2024/02/07 07:03:41;;;;;;;1.00;0.90;;;4.60;97.30;;;;;;5029957;28;20208;-87
2024/02/07 07:06:06;;;;;;;1.00;0.90;;;4.60;97.30;;;;;;5035012;28;20207;-88
2024/02/07 07:08:32;;;;;;;1.00;0.90;;;4.60;97.30;;;;;;5049111;28;20410;-88
2024/02/07 07:10:57;;;;;;;1.00;0.90;;;4.50;97.30;;;;;;5047419;28;20563;-87
2024/02/07 07:13:23;;;;;;;1.00;0.90;;;4.50;97.30;;;;;;5049175;28;20187;-87
2024/02/07 07:15:48;;;;;;;1.30;1.20;;;4.50;97.30;;;;;;5049474;28;20225;-87
2024/02/07 07:18:14;;;;;;;1.07;0.97;;;4.40;97.30;;;;;;5049842;28;20184;-88
2024/02/07 07:20:40;;;;;;;1.00;0.90;;;4.30;97.30;;;;;;5049614;28;20199;-87
2024/02/07 07:23:06;;;;;;;1.00;0.90;;;4.30;97.30;;;;;;5049398;28;20176;-88
2024/02/07 07:25:31;;;;;;;1.20;1.10;;;4.30;97.30;;;;;;5049338;28;20525;-87
2024/02/07 07:27:57;;;;;;;1.00;0.90;;;4.20;97.30;;;;;;5043768;28;20183;-87
2024/02/07 07:30:22;;;;;;;1.10;1.00;;;4.10;97.30;;;;;;5045883;28;20633;-87
2024/02/07 07:32:48;;;;;;;1.20;1.10;;;4.10;97.30;;;;;;5038621;28;20195;-87
2024/02/07 07:35:13;;;;;;;1.00;0.90;;;4.10;97.30;;;;;;5046828;28;20180;-87
2024/02/07 07:37:39;;;;;;;1.20;1.10;;;4.10;97.30;;;;;;5041898;28;20580;-88
2024/02/07 07:40:05;;;;;;;1.00;0.90;;;4.10;97.30;;;;;;5034571;28;20204;-87
2024/02/07 07:42:31;;;;;;;1.00;0.90;;;4.10;97.30;;;;;;5046254;28;20669;-87
2024/02/07 07:44:56;;;;;;;0.97;0.87;;;4.10;97.30;;;;;;5038378;28;20427;-87
2024/02/07 07:47:22;;;;;;;0.90;0.80;;;4.10;97.30;;;;;;5040503;28;20207;-87
2024/02/07 07:49:47;;;;;;;0.90;0.80;;;4.00;97.30;;;;;;5040019;28;20720;-87
2024/02/07 07:52:13;;;;;;;1.10;1.00;;;4.10;97.30;;;;;;5042563;28;20199;-86
2024/02/07 07:54:38;;;;;;;1.00;0.90;;;4.00;97.30;;;;;;5049830;28;20186;-86
2024/02/07 07:57:07;;;;;;;1.00;0.90;;;3.90;97.30;;;;;;5050041;28;20592;-87
2024/02/07 07:59:33;;;;;;;1.10;1.00;;;3.90;97.30;;;;;;5049933;28;20179;-87
2024/02/07 08:01:59;;;;;;;1.00;0.90;;;3.80;97.30;;;;;;5050864;28;20433;-87
2024/02/07 08:04:25;;;;;;;1.00;0.90;;;3.80;97.30;;;;;;5048831;28;20208;-86
2024/02/07 08:06:51;;;;;;;1.00;0.90;;;3.80;97.30;;;;;;5047188;28;21032;-86
2024/02/07 08:09:18;;;;;;;1.00;0.90;;;3.90;97.30;;;;;;5048626;28;20517;-86
2024/02/07 08:11:43;;;;;;;1.00;0.90;;;3.80;97.30;;;;;;5040944;28;20176;-86
2024/02/07 08:14:09;;;;;;;1.67;1.57;;;3.70;97.30;;;;;;5048708;28;20880;-87
2024/02/07 08:16:34;;;;;;;0.90;0.80;;;3.70;97.30;;;;;;5049365;28;20214;-87
2024/02/07 08:19:00;;;;;;;1.00;0.90;;;3.70;97.30;;;;;;5050111;28;20662;-86
2024/02/07 08:21:26;;;;;;;0.93;0.83;;;3.70;97.30;;;;;;5047693;28;20203;-86
2024/02/07 08:23:51;;;;;;;1.00;0.90;;;3.70;97.30;;;;;;5048501;28;20176;-86
2024/02/07 08:26:17;;;;;;;0.97;0.87;;;3.70;97.30;;;;;;5048224;28;20203;-87
2024/02/07 08:28:42;;;;;;;1.03;0.93;;;3.70;97.30;;;;;;5050165;28;20176;-86
2024/02/07 08:31:11;;;;;;;0.90;0.80;;;3.70;97.30;;;;;;5042767;28;20184;-86
2024/02/07 08:33:37;;;;;;;1.00;0.90;;;3.70;97.30;;;;;;5045991;28;20202;-86
2024/02/07 08:36:03;;;;;;;1.10;1.00;;;3.70;97.30;;;;;;5048210;28;20438;-86
2024/02/07 08:38:28;;;;;;;0.90;0.80;;;3.70;97.30;;;;;;5048160;28;20996;-87
2024/02/07 08:40:54;;;;;;;1.00;0.90;;;3.70;97.30;;;;;;5047718;28;20465;-86
2024/02/07 08:43:21;;;;;;;0.90;0.80;;;3.70;97.30;;;;;;5049959;28;20180;-86
2024/02/07 08:45:46;;;;;;;2.67;1.90;;;3.70;97.30;;;;;;5056355;28;20437;-86
2024/02/07 08:48:12;;;;;;;2.40;2.20;;;3.70;97.30;;;;;;5053238;28;20568;-86
2024/02/07 08:50:37;;;;;;;1.00;0.90;;;3.70;97.30;;;;;;5050508;28;20184;-86
2024/02/07 08:53:03;;;;;;;1.10;1.00;;;3.70;97.30;;;;;;5046190;28;20529;-86
2024/02/07 08:55:28;;;;;;;1.00;0.90;;;3.60;97.30;;;;;;5051759;28;20216;-86
2024/02/07 08:57:55;;;;;;;1.00;0.90;;;3.60;97.30;;;;;;5053032;28;20227;-86
2024/02/07 09:00:20;;;;;;;1.00;0.90;;;3.50;97.30;;;;;;5054240;28;20846;-85
2024/02/07 09:02:51;;;;;;;0.97;0.87;;;3.50;97.30;;;;;;5047986;28;20183;-86
2024/02/07 09:05:18;;;;;;;1.00;0.90;;;3.50;97.30;;;;;;5047440;28;20283;-86
2024/02/07 09:07:44;;;;;;;1.00;0.90;;;3.40;97.30;;;;;;5052823;28;20440;-86
2024/02/07 09:10:10;;;;;;;0.90;0.80;;;3.40;97.30;;;;;;5053842;28;20418;-85
2024/02/07 09:12:36;;;;;;;1.20;1.10;;;3.30;97.30;;;;;;5046148;28;20661;-86
2024/02/07 09:15:01;;;;;;;1.00;0.90;;;3.20;97.30;;;;;;5048382;28;20183;-87
2024/02/07 09:17:27;;;;;;;1.83;1.40;;;3.20;97.30;;;;;;5050615;28;20283;-86
2024/02/07 09:19:53;;;;;;;1.60;1.13;;;3.20;97.30;;;;;;5052116;28;20235;-86
2024/02/07 09:22:18;;;;;;;1.00;0.90;;;3.10;97.30;;;;;;5052257;28;20188;-87
2024/02/07 09:24:44;;;;;;;1.17;1.07;;;3.10;97.30;;;;;;5051695;28;20421;-86
2024/02/07 09:27:09;;;;;;;1.00;0.90;;;3.10;97.30;;;;;;5046580;28;20669;-86
2024/02/07 09:29:35;;;;;;;0.90;0.80;;;3.10;97.30;;;;;;5052447;28;20225;-87
2024/02/07 09:32:02;;;;;;;1.00;0.90;;;3.10;97.30;;;;;;5050767;28;20191;-86
2024/02/07 09:34:27;;;;;;;1.00;0.90;;;3.20;97.30;;;;;;5051059;28;20839;-87
2024/02/07 09:36:53;;;;;;;0.90;0.80;;;3.10;97.30;;;;;;5051929;28;20521;-86
2024/02/07 09:39:20;;;;;;;0.90;0.80;;;3.20;97.30;;;;;;5051331;28;20735;-86
2024/02/07 09:41:47;;;;;;;0.83;0.73;;;3.20;97.30;;;;;;5051665;28;20180;-85
2024/02/07 09:44:16;;;;;;;1.00;0.90;;;3.20;97.30;;;;;;5052504;28;20422;-84
2024/02/07 09:46:45;;;;;;;1.30;1.20;;;3.20;97.30;;;;;;5053945;28;20429;-85
2024/02/07 09:49:13;;;;;;;1.20;1.10;;;3.20;97.30;;;;;;5051669;28;20423;-84
2024/02/07 09:51:40;;;;;;;0.90;0.80;;;3.30;97.30;;;;;;5053120;28;20488;-85
2024/02/07 09:54:10;;;;;;;0.90;0.80;;;3.30;97.30;;;;;;5052408;28;20481;-85
2024/02/07 09:56:37;;;;;;;0.90;0.80;;;3.30;97.30;;;;;;5049863;28;20478;-85
2024/02/07 09:59:04;;;;;;;1.33;1.23;;;3.40;97.30;;;;;;5051089;28;20954;-85
2024/02/07 10:01:30;;;;;;;1.10;1.00;;;3.40;97.30;;;;;;5051669;28;21037;-85
2024/02/07 10:04:00;;;;;;;1.00;0.90;;;3.30;97.30;;;;;;5050353;28;20430;-85
2024/02/07 10:06:26;;;;;;;1.10;1.00;;;3.30;97.30;;;;;;5052402;28;20282;-86
2024/02/07 10:08:52;;;;;;;1.00;0.90;;;3.40;97.30;;;;;;5041445;28;20854;-85
2024/02/07 10:11:20;;;;;;;1.00;0.90;;;3.40;97.30;;;;;;5048314;28;20458;-85
2024/02/07 10:13:46;;;;;;;1.10;1.00;;;3.40;97.30;;;;;;5042972;28;20456;-86
2024/02/07 10:16:12;;;;;;;1.00;0.90;;;3.40;97.30;;;;;;5049031;28;20529;-85
2024/02/07 10:18:38;;;;;;;2.70;1.50;;;3.50;97.30;;;;;;5055916;28;20852;-86
2024/02/07 10:21:03;;;;;;;1.00;0.90;;;3.40;97.30;;;;;;5051429;28;20466;-85
2024/02/07 10:23:30;;;;;;;0.90;0.80;;;3.40;97.30;;;;;;5044321;28;20180;-85
2024/02/07 10:25:56;;;;;;;1.00;0.90;;;3.40;97.30;;;;;;5052292;28;20200;-85
2024/02/07 10:28:24;;;;;;;1.13;1.10;;;3.40;97.30;;;;;;5038913;28;20481;-86
2024/02/07 10:31:04;;;;;;;1.20;1.10;;;3.40;97.30;;;;;;5041854;28;20944;-86
2024/02/07 10:33:33;;;;;;;1.00;0.90;;;3.40;97.30;;;;;;5048335;28;20568;-86
2024/02/07 10:36:04;;;;;;;16.83;1.20;;;3.40;97.30;;;;;;5053463;28;20438;-86
2024/02/07 10:38:32;;;;;;;1.00;0.90;;;3.50;97.30;;;;;;5051154;28;20793;-87
2024/02/07 10:40:57;;;;;;;1.00;0.90;;;3.50;97.30;;;;;;5046461;28;20466;-86
2024/02/07 10:43:27;;;;;;;1.53;1.40;;;3.50;97.30;;;;;;5036975;28;20426;-85
2024/02/07 10:45:59;;;;;;;0.90;0.80;;;3.50;97.30;;;;;;5048809;28;20203;-86
2024/02/07 10:48:25;;;;;;;1.97;1.87;;;3.50;97.30;;;;;;5056226;28;20467;-86
2024/02/07 10:50:51;;;;;;;1.00;0.90;;;3.50;97.30;;;;;;5051542;28;20429;-85
2024/02/07 10:53:17;;;;;;;1.00;0.90;;;3.50;97.30;;;;;;5045434;28;20184;-85
2024/02/07 10:55:43;;;;;;;1.00;0.90;;;3.60;97.30;;;;;;5050136;28;20973;-87
2024/02/07 10:58:11;;;;;;;1.10;1.00;;;3.60;97.30;;;;;;5052869;28;20433;-86
2024/02/07 11:00:37;;;;;;;0.97;0.87;;;3.50;97.30;;;;;;5053131;28;20488;-86
2024/02/07 11:03:03;;;;;;;1.00;0.90;;;3.50;97.30;;;;;;5053320;28;20792;-87
2024/02/07 11:05:29;;;;;;;1.00;0.90;;;3.50;97.30;;;;;;5052131;28;20232;-87
2024/02/07 11:07:55;;;;;;;0.90;0.80;;;3.50;97.30;;;;;;5058408;28;20414;-87
2024/02/07 11:10:22;;;;;;;1.30;1.20;;;3.50;97.30;;;;;;5051032;28;20521;-86
2024/02/07 11:12:48;;;;;;;1.00;0.90;;;3.50;97.30;;;;;;5052705;28;20210;-86
2024/02/07 11:15:14;;;;;;;1.00;0.90;;;3.60;97.30;;;;;;5052983;28;20957;-86
2024/02/07 11:17:40;;;;;;;1.17;1.07;;;3.60;97.30;;;;;;5048851;28;20449;-87
2024/02/07 11:20:07;;;;;;;1.20;1.10;;;3.70;97.30;;;;;;5052482;28;20206;-87
2024/02/07 11:22:41;;;;;;;1.07;0.97;;;3.70;97.30;;;;;;5052695;28;20421;-86
2024/02/07 11:25:10;;;;;;;1.60;1.50;;;3.70;97.30;;;;;;5053421;28;20955;-87
2024/02/07 11:27:40;;;;;;;1.00;0.90;;;3.70;97.30;;;;;;5038940;28;20458;-87
2024/02/07 11:30:08;;;;;;;1.00;0.90;;;3.70;97.30;;;;;;5052553;28;20479;-88
2024/02/07 11:32:35;;;;;;;1.10;1.00;;;3.80;97.30;;;;;;5050293;28;20436;-86
2024/02/07 11:35:01;;;;;;;1.00;0.90;;;3.80;97.30;;;;;;5051818;28;20512;-88
2024/02/07 11:37:35;;;;;;;0.90;0.80;;;3.80;97.30;;;;;;5047629;28;20537;-88
2024/02/07 11:40:12;;;;;;;1.00;0.90;;;3.80;97.30;;;;;;5052854;28;20457;-88
2024/02/07 11:42:39;;;;;;;1.00;0.90;;;3.80;97.30;;;;;;5041727;28;20448;-88
2024/02/07 11:45:05;;;;;;;1.00;0.90;;;3.80;97.30;;;;;;5056729;28;20420;-87
2024/02/07 11:47:40;;;;;;;2.33;2.13;;;3.80;97.30;;;;;;5044186;28;20445;-88
2024/02/07 11:50:06;;;;;;;1.00;0.90;;;3.80;97.30;;;;;;5049208;28;20450;-87
2024/02/07 11:52:40;;;;;;;1.00;0.90;;;3.80;97.30;;;;;;5069706;28;20834;-87
2024/02/07 11:55:16;;;;;;;1.10;1.00;;;3.80;97.30;;;;;;5066549;28;20603;-87
2024/02/07 11:57:43;;;;;;;11.30;1.10;;;3.90;97.30;;;;;;5051828;28;20568;-87
2024/02/07 12:00:16;;;;;;;0.93;0.83;;;3.90;97.30;;;;;;5047618;28;20449;-87
2024/02/07 12:02:52;;;;;;;0.97;0.87;;;3.90;97.30;;;;;;5041402;28;20457;-88
2024/02/07 12:05:19;;;;;;;0.90;0.80;;;3.90;97.30;;;;;;5052353;28;20417;-87
2024/02/07 12:07:49;;;;;;;0.90;0.80;;;3.90;97.30;;;;;;5052066;28;20433;-87
2024/02/07 12:10:15;;;;;;;0.90;0.80;;;3.90;97.30;;;;;;5051792;28;20451;-88
2024/02/07 12:12:40;;;;;;;1.00;0.90;;;3.90;97.30;;;;;;5062963;28;20966;-88
2024/02/07 12:15:06;;;;;;;2.53;1.07;;;3.90;97.30;;;;;;5044357;28;20457;-87
2024/02/07 12:17:34;;;;;;;0.90;0.80;;;3.90;97.30;;;;;;5073076;28;20289;-87
2024/02/07 12:20:01;;;;;;;1.03;0.93;;;3.90;97.30;;;;;;5051349;28;20453;-87
2024/02/07 12:22:35;;;;;;;0.90;0.80;;;3.90;97.30;;;;;;5051272;28;20415;-87
2024/02/07 12:25:02;;;;;;;0.90;0.80;;;3.90;97.30;;;;;;5052752;28;20500;-87
2024/02/07 12:27:28;;;;;;;0.90;0.80;;;3.90;97.30;;;;;;5073619;28;20864;-87
2024/02/07 12:29:56;;;;;;;1.00;0.90;;;3.90;97.30;;;;;;5051379;28;20457;-87
2024/02/07 12:32:23;;;;;;;1.10;1.00;;;3.90;97.30;;;;;;5051405;28;20587;-87
2024/02/07 12:34:49;;;;;;;1.00;0.90;;;3.90;97.30;;;;;;5051301;28;20474;-88
2024/02/07 12:37:16;;;;;;;0.90;0.80;;;3.90;97.30;;;;;;5069303;28;20448;-87
2024/02/07 12:39:43;;;;;;;1.17;0.97;;;3.90;97.30;;;;;;5050550;28;20210;-88
2024/02/07 12:42:20;;;;;;;0.90;0.80;;;3.90;97.30;;;;;;5052638;28;20453;-87
2024/02/07 12:44:48;;;;;;;2.97;1.17;;;4.00;97.30;;;;;;5053808;28;20409;-87
2024/02/07 12:47:14;;;;;;;1.60;1.47;;;3.90;97.30;;;;;;5046173;28;20441;-86
2024/02/07 12:49:41;;;;;;;1.03;0.93;;;4.00;97.30;;;;;;5052535;28;20410;-87
2024/02/07 12:52:06;;;;;;;1.10;1.00;;;4.00;97.30;;;;;;5049174;28;20267;-87
2024/02/07 12:54:32;;;;;;;1.00;0.90;;;3.90;97.30;;;;;;5055400;28;20485;-87
2024/02/07 12:56:57;;;;;;;1.77;1.20;;;3.90;97.30;;;;;;5051410;28;20325;-87
2024/02/07 12:59:32;;;;;;;0.90;0.80;;;3.90;97.30;;;;;;5056782;28;20175;-87
2024/02/07 13:01:58;;;;;;;1.73;1.60;;;3.90;97.30;;;;;;5073788;28;20182;-87
2024/02/07 13:04:24;;;;;;;1.10;1.00;;;4.00;97.30;;;;;;5056021;28;20785;-87
2024/02/07 13:06:49;;;;;;;1.03;1.00;;;4.00;97.30;;;;;;5046859;28;20437;-88
2024/02/07 13:09:15;;;;;;;2.33;2.13;;;4.00;97.30;;;;;;5053235;28;20266;-87
2024/02/07 13:11:41;;;;;;;1.00;0.90;;;4.00;97.30;;;;;;5054249;28;20895;-88
2024/02/07 13:14:06;;;;;;;0.90;0.80;;;4.00;97.30;;;;;;5055916;28;20791;-87
2024/02/07 13:16:33;;;;;;;0.90;0.80;;;4.00;97.30;;;;;;5051373;28;20284;-86
2024/02/07 13:18:59;;;;;;;1.00;0.90;;;4.00;97.30;;;;;;5048289;28;20214;-87
2024/02/07 13:21:24;;;;;;;0.97;0.90;;;4.10;97.30;;;;;;5049606;28;20991;-87
2024/02/07 13:23:50;;;;;;;0.90;0.80;;;4.10;97.30;;;;;;5046782;28;20618;-87
2024/02/07 13:26:21;;;;;;;1.00;0.90;;;4.20;97.30;;;;;;5068883;28;20195;-87
2024/02/07 13:28:47;;;;;;;0.90;0.80;;;4.20;97.30;;;;;;5045278;28;20179;-87
2024/02/07 13:31:13;;;;;;;0.90;0.80;;;4.30;97.30;;;;;;5043375;28;20468;-87
2024/02/07 13:33:38;;;;;;;1.10;1.00;;;4.30;97.30;;;;;;5055673;28;20430;-87
2024/02/07 13:36:04;;;;;;;0.97;0.87;;;4.30;97.30;;;;;;5051490;28;20207;-87
2024/02/07 13:38:30;;;;;;;1.10;1.00;;;4.30;97.30;;;;;;5052828;28;20179;-87
2024/02/07 13:40:55;;;;;;;1.00;0.90;;;4.40;97.30;;;;;;5050375;28;20203;-87
2024/02/07 13:43:21;;;;;;;1.10;1.00;;;4.30;97.30;;;;;;5055131;28;20220;-87
2024/02/07 13:45:47;;;;;;;0.93;0.83;;;4.30;97.30;;;;;;5049806;28;20245;-87
2024/02/07 13:48:13;;;;;;;0.90;0.80;;;4.30;97.30;;;;;;5047743;28;20419;-86
2024/02/07 13:50:38;;;;;;;0.90;0.80;;;4.20;97.30;;;;;;5049501;28;20183;-87
2024/02/07 13:53:06;;;;;;;0.97;0.87;;;4.20;97.30;;;;;;5051668;28;20325;-87
2024/02/07 13:55:32;;;;;;;1.63;1.53;;;4.20;97.30;;;;;;5053905;28;20179;-88
2024/02/07 13:57:57;;;;;;;0.97;0.87;;;4.20;97.30;;;;;;5051367;28;20599;-87
2024/02/07 14:00:23;;;;;;;0.90;0.80;;;4.30;97.30;;;;;;5061596;28;20570;-87
2024/02/07 14:02:49;;;;;;;1.13;1.00;;;4.30;97.30;;;;;;5046507;28;20664;-87
2024/02/07 14:05:14;;;;;;;1.03;0.93;;;4.30;97.30;;;;;;5051855;28;20421;-87
2024/02/07 14:07:40;;;;;;;1.33;1.23;;;4.30;97.30;;;;;;5052347;28;20198;-88
2024/02/07 14:10:06;;;;;;;1.00;0.90;;;4.20;97.30;;;;;;5065252;28;20338;-88
2024/02/07 14:12:31;;;;;;;1.17;1.00;;;4.30;97.30;;;;;;5093177;28;20222;-88
2024/02/07 14:14:57;;;;;;;1.27;1.17;;;4.20;97.30;;;;;;5067391;28;20433;-87
2024/02/07 14:17:22;;;;;;;0.90;0.80;;;4.20;97.30;;;;;;5066717;28;20202;-87
2024/02/07 14:19:48;;;;;;;1.10;1.00;;;4.30;97.30;;;;;;5045433;28;20285;-87
2024/02/07 14:22:14;;;;;;;1.00;0.90;;;4.30;97.30;;;;;;5051187;28;20179;-86
2024/02/07 14:24:40;;;;;;;1.13;1.03;;;4.20;97.30;;;;;;5053752;28;20410;-87
2024/02/07 14:27:06;;;;;;;1.53;1.43;;;4.30;97.30;;;;;;5064928;28;20195;-87
2024/02/07 14:29:31;;;;;;;1.37;1.27;;;4.30;97.30;;;;;;5053342;28;20804;-87
2024/02/07 14:31:57;;;;;;;3.23;2.40;;;4.30;97.30;;;;;;5048283;28;20805;-87
2024/02/07 14:34:22;;;;;;;1.00;0.90;;;4.30;97.30;;;;;;5050990;28;20175;-87
2024/02/07 14:36:48;;;;;;;1.10;1.00;;;4.30;97.30;;;;;;5061162;28;20242;-87
2024/02/07 14:39:15;;;;;;;1.13;1.03;;;4.30;97.30;;;;;;5055361;28;20724;-86
2024/02/07 14:41:40;;;;;;;0.90;0.80;;;4.40;97.30;;;;;;5046999;28;20464;-87
2024/02/07 14:44:06;;;;;;;1.90;1.80;;;4.40;97.30;;;;;;5058049;28;20856;-86
2024/02/07 14:46:32;;;;;;;1.20;1.10;;;4.20;97.30;;;;;;5060615;28;20232;-87
2024/02/07 14:48:58;;;;;;;0.90;0.80;;;4.00;97.30;;;;;;5055152;28;20406;-86
2024/02/07 14:51:23;;;;;;;0.90;0.80;;;4.00;97.30;;;;;;5053318;28;20527;-87
2024/02/07 14:53:49;;;;;;;0.90;0.80;;;3.90;97.30;;;;;;5055220;28;20675;-87
2024/02/07 14:56:14;;;;;;;1.00;0.90;;;3.90;97.30;;;;;;5051511;28;20230;-86
2024/02/07 14:58:40;;;;;;;1.00;0.90;;;3.80;97.30;;;;;;5073141;28;20252;-86
2024/02/07 15:01:07;;;;;;;2.50;2.30;;;3.70;97.30;;;;;;5054878;28;20206;-87
2024/02/07 15:03:32;;;;;;;2.50;1.20;;;3.60;97.30;;;;;;5051758;28;20531;-87
2024/02/07 15:05:58;;;;;;;1.00;0.90;;;3.60;97.30;;;;;;5053433;28;20516;-87
2024/02/07 15:08:24;;;;;;;0.90;0.80;;;3.50;97.30;;;;;;5053120;28;20551;-86
2024/02/07 15:10:49;;;;;;;0.90;0.80;;;3.50;97.30;;;;;;5054449;28;20175;-87
2024/02/07 15:13:15;;;;;;;1.10;1.00;;;3.40;97.30;;;;;;5069960;28;20429;-86
2024/02/07 15:15:41;;;;;;;1.20;1.10;;;3.40;97.30;;;;;;5051499;28;20673;-86
2024/02/07 15:18:06;;;;;;;0.90;0.80;;;3.40;97.30;;;;;;5054099;28;20283;-87
2024/02/07 15:20:32;;;;;;;0.90;0.80;;;3.30;97.30;;;;;;5052916;28;20207;-87
2024/02/07 15:22:57;;;;;;;0.90;0.80;;;3.20;97.30;;;;;;5047962;28;20258;-86
2024/02/07 15:25:23;;;;;;;0.90;0.80;;;3.20;97.30;;;;;;5044435;28;20725;-87
2024/02/07 15:27:49;;;;;;;0.90;0.80;;;3.20;97.30;;;;;;5067480;28;20699;-87
2024/02/07 15:30:14;;;;;;;0.90;0.80;;;3.20;97.30;;;;;;5049506;28;20198;-86
2024/02/07 15:32:40;;;;;;;1.00;0.90;;;3.10;97.30;;;;;;5052860;28;20179;-87
2024/02/07 15:35:07;;;;;;;1.17;1.07;;;3.10;97.30;;;;;;5049557;28;20191;-87
2024/02/07 15:37:33;;;;;;;1.00;0.90;;;3.10;97.30;;;;;;5049296;28;20659;-87
2024/02/07 15:39:58;;;;;;;1.10;1.00;;;3.10;97.30;;;;;;5044734;28;20500;-86
2024/02/07 15:42:24;;;;;;;1.20;1.10;;;3.10;97.30;;;;;;5050728;28;20641;-87
2024/02/07 15:44:49;;;;;;;1.30;1.20;;;3.10;97.30;;;;;;5049842;28;20226;-87
2024/02/07 15:47:16;;;;;;;1.43;1.33;;;3.10;97.30;;;;;;5046242;28;20625;-87
2024/02/07 15:49:42;;;;;;;2.03;1.63;;;3.20;97.30;;;;;;5049335;28;20167;-86
2024/02/07 15:52:08;;;;;;;5.20;1.30;;;3.20;97.30;;;;;;5044860;28;20410;-87
2024/02/07 15:54:36;;;;;;;1.20;1.10;;;3.20;97.30;;;;;;5052418;28;20555;-87
2024/02/07 15:57:02;;;;;;;1.00;0.90;;;3.20;97.30;;;;;;5046462;28;20227;-86
2024/02/07 15:59:27;;;;;;;1.37;1.27;;;3.20;97.30;;;;;;5070077;28;20466;-87
2024/02/07 16:01:53;;;;;;;1.07;0.97;;;3.20;97.30;;;;;;5046196;28;20552;-87
2024/02/07 16:04:18;;;;;;;1.33;1.23;;;3.20;97.30;;;;;;5049164;28;20172;-87
2024/02/07 16:06:44;;;;;;;1.00;0.90;;;3.20;97.30;;;;;;5048930;28;20694;-86
2024/02/07 16:09:11;;;;;;;1.20;1.10;;;3.20;97.30;;;;;;5057263;28;20266;-86
2024/02/07 16:11:36;;;;;;;6.20;1.67;;;3.20;97.30;;;;;;5048820;28;20248;-86
2024/02/07 16:14:02;;;;;;;1.00;0.90;;;3.20;97.30;;;;;;5046719;28;20444;-87
2024/02/07 16:16:27;;;;;;;1.10;1.00;;;3.20;97.30;;;;;;5049954;28;20826;-86
2024/02/07 16:18:54;;;;;;;1.43;1.33;;;3.20;97.30;;;;;;5049134;28;20236;-87
2024/02/07 16:21:20;;;;;;;1.20;1.10;;;3.20;97.30;;;;;;5046330;28;20249;-86
2024/02/07 16:23:45;;;;;;;1.80;1.73;;;3.20;97.30;;;;;;5049312;28;20822;-87
2024/02/07 16:26:12;;;;;;;1.10;1.00;;;3.20;97.30;;;;;;5051806;28;20438;-86
2024/02/07 16:28:37;;;;;;;2.30;2.10;;;3.20;97.30;;;;;;5064154;28;20262;-87
2024/02/07 16:31:10;;;;;;;2.13;1.77;;;3.30;97.30;;;;;;5051792;28;20512;-87
2024/02/07 16:33:35;;;;;;;1.00;0.90;;;3.30;97.30;;;;;;5046552;28;20637;-87
2024/02/07 16:36:01;;;;;;;1.70;1.60;;;3.30;97.30;;;;;;5051695;28;20448;-87
2024/02/07 16:38:27;;;;;;;2.37;2.17;;;3.30;97.30;;;;;;5051706;28;20252;-87
2024/02/07 16:40:53;;;;;;;1.33;1.23;;;3.30;97.30;;;;;;5051590;28;20236;-87
2024/02/07 16:43:20;;;;;;;1.27;1.20;;;3.30;97.30;;;;;;5049156;28;20168;-86
2024/02/07 16:45:48;;;;;;;1.00;0.90;;;3.30;97.30;;;;;;5063931;28;20417;-87
2024/02/07 16:48:14;;;;;;;1.93;1.80;;;3.20;97.30;;;;;;5057928;28;20841;-86
2024/02/07 16:50:39;;;;;;;2.00;1.67;;;3.20;97.30;;;;;;5068510;28;20520;-86
2024/02/07 16:53:05;;;;;;;1.97;1.87;;;3.20;97.30;;;;;;5071083;28;20186;-86
2024/02/07 16:55:31;;;;;;;1.50;1.40;;;3.20;97.30;;;;;;5057391;28;20184;-87
2024/02/07 16:57:57;;;;;;;1.00;0.90;;;3.20;97.30;;;;;;5062908;28;20540;-86
2024/02/07 17:00:22;;;;;;;2.77;1.83;;;3.20;97.30;;;;;;5061315;28;21105;-86
2024/02/07 17:02:49;;;;;;;2.00;1.47;;;3.20;97.30;;;;;;5070994;28;20179;-86
2024/02/07 17:05:14;;;;;;;1.10;1.00;;;3.20;97.30;;;;;;5088326;28;20214;-86
2024/02/07 17:07:41;;;;;;;1.30;1.20;;;3.20;97.30;;;;;;5068996;28;20522;-87
2024/02/07 17:10:07;;;;;;;1.30;1.20;;;3.10;97.30;;;;;;5082927;28;20182;-86
2024/02/07 17:12:32;;;;;;;2.17;1.87;;;3.10;97.30;;;;;;5075241;28;20432;-87
2024/02/07 17:14:58;;;;;;;1.20;1.10;;;3.20;97.30;;;;;;5090688;28;20220;-88
2024/02/07 17:17:23;;;;;;;1.57;1.47;;;3.10;97.30;;;;;;5061749;28;20194;-87
2024/02/07 17:19:49;;;;;;;3.50;2.17;;;3.10;97.30;;;;;;5063676;28;20204;-87
2024/02/07 17:22:14;;;;;;;1.00;0.90;;;3.10;97.30;;;;;;5066948;28;20203;-86
2024/02/07 17:24:40;;;;;;;1.27;1.17;;;3.10;97.30;;;;;;5068252;28;20180;-86
2024/02/07 17:27:05;;;;;;;2.70;1.47;;;3.10;97.30;;;;;;5073993;28;20209;-87
2024/02/07 17:29:32;;;;;;;1.10;1.00;;;3.10;97.30;;;;;;5076224;28;20303;-87
2024/02/07 17:31:59;;;;;;;1.20;1.10;;;3.10;97.30;;;;;;5074927;28;20183;-87
2024/02/07 17:34:24;;;;;;;1.07;0.97;;;3.10;97.30;;;;;;5066900;28;20420;-87
2024/02/07 17:36:50;;;;;;;1.30;1.20;;;3.10;97.30;;;;;;5072694;28;20433;-87
2024/02/07 17:39:15;;;;;;;1.50;1.43;;;3.10;97.30;;;;;;5088202;28;20260;-87
2024/02/07 17:41:41;;;;;;;1.40;1.30;;;3.10;97.30;;;;;;5086361;28;20225;-87
2024/02/07 17:44:06;;;;;;;1.33;1.23;;;3.10;97.30;;;;;;5069206;28;20185;-86
2024/02/07 17:46:32;;;;;;;0.90;0.80;;;3.10;97.30;;;;;;5054448;28;20760;-86
2024/02/07 17:48:58;;;;;;;1.33;1.23;;;3.10;97.30;;;;;;5055035;28;20179;-87
2024/02/07 17:51:25;;;;;;;1.33;1.23;;;3.00;97.30;;;;;;5051083;28;20993;-87
2024/02/07 17:53:50;;;;;;;1.00;0.90;;;3.00;97.30;;;;;;5053052;28;20262;-86
2024/02/07 17:56:16;;;;;;;2.40;1.87;;;3.00;97.30;;;;;;5053829;28;20902;-86
2024/02/07 17:58:41;;;;;;;1.00;0.90;;;3.00;97.30;;;;;;5050883;28;20198;-87
2024/02/07 18:01:06;;;;;;;1.47;1.17;;;3.00;97.30;;;;;;5054484;28;20205;-86
2024/02/07 18:03:32;;;;;;;1.13;1.03;;;3.00;97.30;;;;;;5052250;28;20691;-86
2024/02/07 18:05:57;;;;;;;1.47;1.20;;;3.00;97.30;;;;;;5059611;28;20201;-87
2024/02/07 18:08:23;;;;;;;1.70;1.60;;;3.00;97.30;;;;;;5080237;28;20180;-87